sensor_id;sensor_type;location;lat;lon;timestamp;P1;durP1;ratioP1;P2;durP2;ratioP2
2698;SDS011;1359;51.798;12.174;2022-12-18T00:00:39;63.00;;;28.63;;
2698;SDS011;1359;51.798;12.174;2022-12-18T00:03:04;63.73;;;30.70;;
2698;SDS011;1359;51.798;12.174;2022-12-18T00:05:29;61.13;;;30.43;;
2698;SDS011;1359;51.798;12.174;2022-12-18T00:07:55;65.43;;;33.60;;
2698;SDS011;1359;51.798;12.174;2022-12-18T00:10:20;63.70;;;32.53;;
2698;SDS011;1359;51.798;12.174;2022-12-18T00:12:45;60.43;;;30.60;;
2698;SDS011;1359;51.798;12.174;2022-12-18T00:15:10;73.50;;;30.43;;
2698;SDS011;1359;51.798;12.174;2022-12-18T00:17:35;80.10;;;32.70;;
2698;SDS011;1359;51.798;12.174;2022-12-18T00:20:01;65.23;;;30.07;;
2698;SDS011;1359;51.798;12.174;2022-12-18T00:22:26;73.97;;;30.77;;
2698;SDS011;1359;51.798;12.174;2022-12-18T00:24:51;56.80;;;30.10;;
2698;SDS011;1359;51.798;12.174;2022-12-18T00:27:16;58.40;;;29.67;;
2698;SDS011;1359;51.798;12.174;2022-12-18T00:29:41;53.50;;;27.70;;
2698;SDS011;1359;51.798;12.174;2022-12-18T00:32:06;61.00;;;30.47;;
2698;SDS011;1359;51.798;12.174;2022-12-18T00:34:32;58.07;;;27.13;;
2698;SDS011;1359;51.798;12.174;2022-12-18T00:36:57;62.87;;;30.17;;
2698;SDS011;1359;51.798;12.174;2022-12-18T00:39:22;68.50;;;33.03;;
2698;SDS011;1359;51.798;12.174;2022-12-18T00:41:47;61.63;;;31.70;;
2698;SDS011;1359;51.798;12.174;2022-12-18T00:44:31;71.07;;;34.47;;
2698;SDS011;1359;51.798;12.174;2022-12-18T00:46:56;71.30;;;32.83;;
2698;SDS011;1359;51.798;12.174;2022-12-18T00:49:22;68.43;;;31.67;;
2698;SDS011;1359;51.798;12.174;2022-12-18T00:51:47;66.00;;;33.87;;
2698;SDS011;1359;51.798;12.174;2022-12-18T00:54:12;74.47;;;33.30;;
2698;SDS011;1359;51.798;12.174;2022-12-18T00:56:38;65.33;;;32.40;;
2698;SDS011;1359;51.798;12.174;2022-12-18T00:59:04;81.60;;;36.07;;
2698;SDS011;1359;51.798;12.174;2022-12-18T01:01:29;80.33;;;34.53;;
2698;SDS011;1359;51.798;12.174;2022-12-18T01:03:54;67.17;;;31.70;;
2698;SDS011;1359;51.798;12.174;2022-12-18T01:06:19;68.03;;;29.90;;
2698;SDS011;1359;51.798;12.174;2022-12-18T01:08:44;69.97;;;30.77;;
2698;SDS011;1359;51.798;12.174;2022-12-18T01:11:17;61.60;;;32.20;;
2698;SDS011;1359;51.798;12.174;2022-12-18T01:13:43;68.73;;;30.30;;
2698;SDS011;1359;51.798;12.174;2022-12-18T01:16:08;64.73;;;28.27;;
2698;SDS011;1359;51.798;12.174;2022-12-18T01:18:35;56.70;;;29.90;;
2698;SDS011;1359;51.798;12.174;2022-12-18T01:21:04;63.20;;;31.17;;
2698;SDS011;1359;51.798;12.174;2022-12-18T01:23:30;58.37;;;26.63;;
2698;SDS011;1359;51.798;12.174;2022-12-18T01:25:55;59.13;;;29.20;;
2698;SDS011;1359;51.798;12.174;2022-12-18T01:28:20;73.60;;;31.10;;
2698;SDS011;1359;51.798;12.174;2022-12-18T01:30:45;61.03;;;28.43;;
2698;SDS011;1359;51.798;12.174;2022-12-18T01:33:11;60.03;;;27.30;;
2698;SDS011;1359;51.798;12.174;2022-12-18T01:35:40;55.30;;;29.50;;
2698;SDS011;1359;51.798;12.174;2022-12-18T01:38:05;55.60;;;28.50;;
2698;SDS011;1359;51.798;12.174;2022-12-18T01:40:30;57.80;;;31.13;;
2698;SDS011;1359;51.798;12.174;2022-12-18T01:42:55;63.13;;;29.43;;
2698;SDS011;1359;51.798;12.174;2022-12-18T01:45:27;63.83;;;31.43;;
2698;SDS011;1359;51.798;12.174;2022-12-18T01:47:54;59.33;;;29.17;;
2698;SDS011;1359;51.798;12.174;2022-12-18T01:52:47;60.60;;;29.47;;
2698;SDS011;1359;51.798;12.174;2022-12-18T01:55:12;53.67;;;30.37;;
2698;SDS011;1359;51.798;12.174;2022-12-18T01:57:39;53.57;;;29.43;;
2698;SDS011;1359;51.798;12.174;2022-12-18T02:00:07;59.43;;;29.70;;
2698;SDS011;1359;51.798;12.174;2022-12-18T02:02:33;54.40;;;28.53;;
2698;SDS011;1359;51.798;12.174;2022-12-18T02:04:58;57.73;;;28.20;;
2698;SDS011;1359;51.798;12.174;2022-12-18T02:17:35;62.67;;;29.53;;
2698;SDS011;1359;51.798;12.174;2022-12-18T02:25:24;49.10;;;25.23;;
2698;SDS011;1359;51.798;12.174;2022-12-18T02:27:52;54.43;;;28.40;;
2698;SDS011;1359;51.798;12.174;2022-12-18T02:30:19;63.27;;;30.80;;
2698;SDS011;1359;51.798;12.174;2022-12-18T02:32:46;56.40;;;29.90;;
2698;SDS011;1359;51.798;12.174;2022-12-18T02:35:15;49.57;;;26.40;;
2698;SDS011;1359;51.798;12.174;2022-12-18T02:37:41;58.80;;;30.20;;
2698;SDS011;1359;51.798;12.174;2022-12-18T02:40:08;57.53;;;27.77;;
2698;SDS011;1359;51.798;12.174;2022-12-18T02:42:34;48.47;;;27.00;;
2698;SDS011;1359;51.798;12.174;2022-12-18T02:44:59;47.67;;;27.60;;
2698;SDS011;1359;51.798;12.174;2022-12-18T02:47:26;64.67;;;30.60;;
2698;SDS011;1359;51.798;12.174;2022-12-18T02:52:27;53.83;;;27.60;;
2698;SDS011;1359;51.798;12.174;2022-12-18T02:55:00;50.83;;;27.10;;
2698;SDS011;1359;51.798;12.174;2022-12-18T02:57:37;53.67;;;30.60;;
2698;SDS011;1359;51.798;12.174;2022-12-18T03:00:10;54.87;;;28.20;;
2698;SDS011;1359;51.798;12.174;2022-12-18T03:05:22;65.47;;;30.93;;
2698;SDS011;1359;51.798;12.174;2022-12-18T03:07:51;46.53;;;26.30;;
2698;SDS011;1359;51.798;12.174;2022-12-18T03:10:19;47.63;;;27.90;;
2698;SDS011;1359;51.798;12.174;2022-12-18T03:12:48;49.93;;;27.07;;
2698;SDS011;1359;51.798;12.174;2022-12-18T03:15:19;50.50;;;27.80;;
2698;SDS011;1359;51.798;12.174;2022-12-18T03:17:46;48.10;;;27.77;;
2698;SDS011;1359;51.798;12.174;2022-12-18T03:20:14;40.17;;;24.63;;
2698;SDS011;1359;51.798;12.174;2022-12-18T03:22:41;48.47;;;28.03;;
2698;SDS011;1359;51.798;12.174;2022-12-18T03:25:08;52.97;;;28.33;;
2698;SDS011;1359;51.798;12.174;2022-12-18T03:27:36;57.50;;;28.43;;
2698;SDS011;1359;51.798;12.174;2022-12-18T03:30:05;49.00;;;30.53;;
2698;SDS011;1359;51.798;12.174;2022-12-18T03:32:36;46.40;;;29.33;;
2698;SDS011;1359;51.798;12.174;2022-12-18T03:35:03;56.43;;;29.77;;
2698;SDS011;1359;51.798;12.174;2022-12-18T03:37:31;43.10;;;25.70;;
2698;SDS011;1359;51.798;12.174;2022-12-18T03:39:56;52.33;;;28.13;;
2698;SDS011;1359;51.798;12.174;2022-12-18T03:42:26;55.83;;;28.50;;
2698;SDS011;1359;51.798;12.174;2022-12-18T03:44:56;58.00;;;28.93;;
2698;SDS011;1359;51.798;12.174;2022-12-18T03:47:30;59.03;;;29.83;;
2698;SDS011;1359;51.798;12.174;2022-12-18T03:50:11;62.20;;;32.10;;
2698;SDS011;1359;51.798;12.174;2022-12-18T03:52:45;63.07;;;34.13;;
2698;SDS011;1359;51.798;12.174;2022-12-18T03:55:13;56.40;;;29.10;;
2698;SDS011;1359;51.798;12.174;2022-12-18T03:57:38;56.50;;;30.83;;
2698;SDS011;1359;51.798;12.174;2022-12-18T04:00:06;54.93;;;31.30;;
2698;SDS011;1359;51.798;12.174;2022-12-18T04:02:31;68.03;;;34.47;;
2698;SDS011;1359;51.798;12.174;2022-12-18T04:04:58;66.77;;;34.60;;
2698;SDS011;1359;51.798;12.174;2022-12-18T04:07:25;60.33;;;33.57;;
2698;SDS011;1359;51.798;12.174;2022-12-18T04:09:51;55.33;;;31.43;;
2698;SDS011;1359;51.798;12.174;2022-12-18T04:12:17;63.73;;;34.00;;
2698;SDS011;1359;51.798;12.174;2022-12-18T04:14:42;60.10;;;32.13;;
2698;SDS011;1359;51.798;12.174;2022-12-18T04:17:08;62.87;;;32.37;;
2698;SDS011;1359;51.798;12.174;2022-12-18T04:19:33;63.67;;;33.10;;
2698;SDS011;1359;51.798;12.174;2022-12-18T04:21:58;57.90;;;32.37;;
2698;SDS011;1359;51.798;12.174;2022-12-18T04:24:23;52.10;;;29.40;;
2698;SDS011;1359;51.798;12.174;2022-12-18T04:26:49;59.77;;;32.27;;
2698;SDS011;1359;51.798;12.174;2022-12-18T04:29:14;55.50;;;29.77;;
2698;SDS011;1359;51.798;12.174;2022-12-18T04:31:39;60.20;;;31.77;;
2698;SDS011;1359;51.798;12.174;2022-12-18T04:34:04;65.57;;;30.40;;
2698;SDS011;1359;51.798;12.174;2022-12-18T04:36:29;56.50;;;31.60;;
2698;SDS011;1359;51.798;12.174;2022-12-18T04:38:55;64.40;;;32.37;;
2698;SDS011;1359;51.798;12.174;2022-12-18T04:41:20;50.70;;;28.13;;
2698;SDS011;1359;51.798;12.174;2022-12-18T04:43:45;72.10;;;29.87;;
2698;SDS011;1359;51.798;12.174;2022-12-18T04:46:10;57.97;;;31.30;;
2698;SDS011;1359;51.798;12.174;2022-12-18T04:48:36;56.73;;;29.50;;
2698;SDS011;1359;51.798;12.174;2022-12-18T04:51:01;54.80;;;30.40;;
2698;SDS011;1359;51.798;12.174;2022-12-18T04:53:26;62.70;;;32.70;;
2698;SDS011;1359;51.798;12.174;2022-12-18T04:56:01;65.30;;;31.70;;
2698;SDS011;1359;51.798;12.174;2022-12-18T04:58:27;51.23;;;30.03;;
2698;SDS011;1359;51.798;12.174;2022-12-18T05:00:52;62.67;;;32.73;;
2698;SDS011;1359;51.798;12.174;2022-12-18T05:03:17;63.03;;;31.73;;
2698;SDS011;1359;51.798;12.174;2022-12-18T05:05:42;59.80;;;30.53;;
2698;SDS011;1359;51.798;12.174;2022-12-18T05:08:07;59.77;;;32.50;;
2698;SDS011;1359;51.798;12.174;2022-12-18T05:10:32;54.30;;;28.80;;
2698;SDS011;1359;51.798;12.174;2022-12-18T05:12:58;64.33;;;32.87;;
2698;SDS011;1359;51.798;12.174;2022-12-18T05:15:23;49.30;;;30.43;;
2698;SDS011;1359;51.798;12.174;2022-12-18T05:17:49;67.03;;;31.80;;
2698;SDS011;1359;51.798;12.174;2022-12-18T05:20:14;53.43;;;31.50;;
2698;SDS011;1359;51.798;12.174;2022-12-18T05:22:40;52.27;;;29.10;;
2698;SDS011;1359;51.798;12.174;2022-12-18T05:25:05;63.17;;;32.77;;
2698;SDS011;1359;51.798;12.174;2022-12-18T05:27:30;57.87;;;29.37;;
2698;SDS011;1359;51.798;12.174;2022-12-18T05:29:55;57.57;;;32.53;;
2698;SDS011;1359;51.798;12.174;2022-12-18T05:32:20;63.27;;;32.43;;
2698;SDS011;1359;51.798;12.174;2022-12-18T05:34:46;56.10;;;33.20;;
2698;SDS011;1359;51.798;12.174;2022-12-18T05:37:11;61.20;;;30.57;;
2698;SDS011;1359;51.798;12.174;2022-12-18T05:39:36;52.33;;;30.60;;
2698;SDS011;1359;51.798;12.174;2022-12-18T05:42:01;51.47;;;26.67;;
2698;SDS011;1359;51.798;12.174;2022-12-18T05:44:26;53.30;;;30.70;;
2698;SDS011;1359;51.798;12.174;2022-12-18T05:46:51;53.73;;;30.03;;
2698;SDS011;1359;51.798;12.174;2022-12-18T05:49:20;66.27;;;32.17;;
2698;SDS011;1359;51.798;12.174;2022-12-18T05:51:45;55.53;;;31.90;;
2698;SDS011;1359;51.798;12.174;2022-12-18T05:54:10;58.50;;;29.40;;
2698;SDS011;1359;51.798;12.174;2022-12-18T05:56:36;56.93;;;31.33;;
2698;SDS011;1359;51.798;12.174;2022-12-18T05:59:01;53.03;;;28.33;;
2698;SDS011;1359;51.798;12.174;2022-12-18T06:01:26;48.73;;;28.10;;
2698;SDS011;1359;51.798;12.174;2022-12-18T06:03:52;50.10;;;28.03;;
2698;SDS011;1359;51.798;12.174;2022-12-18T06:06:18;54.70;;;27.90;;
2698;SDS011;1359;51.798;12.174;2022-12-18T06:08:44;51.37;;;30.63;;
2698;SDS011;1359;51.798;12.174;2022-12-18T06:11:09;50.67;;;27.43;;
2698;SDS011;1359;51.798;12.174;2022-12-18T06:13:34;53.60;;;29.00;;
2698;SDS011;1359;51.798;12.174;2022-12-18T06:16:06;52.40;;;27.63;;
2698;SDS011;1359;51.798;12.174;2022-12-18T06:18:31;51.43;;;27.70;;
2698;SDS011;1359;51.798;12.174;2022-12-18T06:20:57;48.10;;;26.00;;
2698;SDS011;1359;51.798;12.174;2022-12-18T06:23:22;53.47;;;28.70;;
2698;SDS011;1359;51.798;12.174;2022-12-18T06:25:48;49.77;;;27.47;;
2698;SDS011;1359;51.798;12.174;2022-12-18T06:28:13;44.43;;;26.97;;
2698;SDS011;1359;51.798;12.174;2022-12-18T06:30:38;48.33;;;26.00;;
2698;SDS011;1359;51.798;12.174;2022-12-18T06:33:03;45.43;;;26.30;;
2698;SDS011;1359;51.798;12.174;2022-12-18T06:35:29;45.83;;;27.13;;
2698;SDS011;1359;51.798;12.174;2022-12-18T06:37:54;50.77;;;29.53;;
2698;SDS011;1359;51.798;12.174;2022-12-18T06:40:19;52.50;;;27.90;;
2698;SDS011;1359;51.798;12.174;2022-12-18T06:42:45;48.60;;;28.13;;
2698;SDS011;1359;51.798;12.174;2022-12-18T06:45:10;55.50;;;28.07;;
2698;SDS011;1359;51.798;12.174;2022-12-18T06:47:36;45.03;;;26.43;;
2698;SDS011;1359;51.798;12.174;2022-12-18T06:50:02;48.20;;;28.20;;
2698;SDS011;1359;51.798;12.174;2022-12-18T06:52:27;54.93;;;29.03;;
2698;SDS011;1359;51.798;12.174;2022-12-18T06:54:52;51.10;;;25.53;;
2698;SDS011;1359;51.798;12.174;2022-12-18T06:57:17;46.97;;;28.60;;
2698;SDS011;1359;51.798;12.174;2022-12-18T06:59:43;47.10;;;29.37;;
2698;SDS011;1359;51.798;12.174;2022-12-18T07:02:10;51.87;;;27.67;;
2698;SDS011;1359;51.798;12.174;2022-12-18T07:04:35;49.10;;;27.63;;
2698;SDS011;1359;51.798;12.174;2022-12-18T07:07:00;46.23;;;29.10;;
2698;SDS011;1359;51.798;12.174;2022-12-18T07:09:26;49.90;;;26.47;;
2698;SDS011;1359;51.798;12.174;2022-12-18T07:11:51;47.90;;;31.10;;
2698;SDS011;1359;51.798;12.174;2022-12-18T07:14:16;51.80;;;28.60;;
2698;SDS011;1359;51.798;12.174;2022-12-18T07:16:41;54.37;;;28.10;;
2698;SDS011;1359;51.798;12.174;2022-12-18T07:19:07;45.60;;;26.60;;
2698;SDS011;1359;51.798;12.174;2022-12-18T07:21:32;44.13;;;25.80;;
2698;SDS011;1359;51.798;12.174;2022-12-18T07:23:57;45.43;;;26.97;;
2698;SDS011;1359;51.798;12.174;2022-12-18T07:26:22;50.93;;;26.53;;
2698;SDS011;1359;51.798;12.174;2022-12-18T07:28:47;44.60;;;26.13;;
2698;SDS011;1359;51.798;12.174;2022-12-18T07:31:14;46.07;;;23.53;;
2698;SDS011;1359;51.798;12.174;2022-12-18T07:33:39;49.30;;;26.57;;
2698;SDS011;1359;51.798;12.174;2022-12-18T07:36:05;40.30;;;24.00;;
2698;SDS011;1359;51.798;12.174;2022-12-18T07:38:31;40.80;;;24.20;;
2698;SDS011;1359;51.798;12.174;2022-12-18T07:41:03;45.73;;;24.30;;
2698;SDS011;1359;51.798;12.174;2022-12-18T07:43:28;39.07;;;24.40;;
2698;SDS011;1359;51.798;12.174;2022-12-18T07:45:53;46.93;;;24.67;;
2698;SDS011;1359;51.798;12.174;2022-12-18T07:48:19;49.70;;;26.07;;
2698;SDS011;1359;51.798;12.174;2022-12-18T07:50:44;45.67;;;24.57;;
2698;SDS011;1359;51.798;12.174;2022-12-18T07:53:09;47.30;;;26.13;;
2698;SDS011;1359;51.798;12.174;2022-12-18T07:55:34;46.80;;;26.40;;
2698;SDS011;1359;51.798;12.174;2022-12-18T07:58:01;44.80;;;26.97;;
2698;SDS011;1359;51.798;12.174;2022-12-18T08:00:26;60.97;;;36.80;;
2698;SDS011;1359;51.798;12.174;2022-12-18T08:02:51;61.77;;;34.60;;
2698;SDS011;1359;51.798;12.174;2022-12-18T08:05:16;50.23;;;29.27;;
2698;SDS011;1359;51.798;12.174;2022-12-18T08:07:41;51.73;;;31.87;;
2698;SDS011;1359;51.798;12.174;2022-12-18T08:10:07;51.53;;;32.60;;
2698;SDS011;1359;51.798;12.174;2022-12-18T08:12:32;48.27;;;31.70;;
2698;SDS011;1359;51.798;12.174;2022-12-18T08:14:57;46.63;;;25.60;;
2698;SDS011;1359;51.798;12.174;2022-12-18T08:17:22;43.03;;;28.90;;
2698;SDS011;1359;51.798;12.174;2022-12-18T08:19:48;44.60;;;25.23;;
2698;SDS011;1359;51.798;12.174;2022-12-18T08:22:13;47.73;;;25.50;;
2698;SDS011;1359;51.798;12.174;2022-12-18T08:24:38;45.87;;;28.53;;
2698;SDS011;1359;51.798;12.174;2022-12-18T08:27:03;42.40;;;25.30;;
2698;SDS011;1359;51.798;12.174;2022-12-18T08:29:28;39.10;;;24.07;;
2698;SDS011;1359;51.798;12.174;2022-12-18T08:31:55;44.00;;;25.27;;
2698;SDS011;1359;51.798;12.174;2022-12-18T08:34:20;46.87;;;26.80;;
2698;SDS011;1359;51.798;12.174;2022-12-18T08:36:45;39.00;;;23.63;;
2698;SDS011;1359;51.798;12.174;2022-12-18T08:39:11;37.20;;;23.03;;
2698;SDS011;1359;51.798;12.174;2022-12-18T08:41:36;37.30;;;21.33;;
2698;SDS011;1359;51.798;12.174;2022-12-18T08:44:01;39.73;;;24.00;;
2698;SDS011;1359;51.798;12.174;2022-12-18T08:46:45;40.77;;;24.27;;
2698;SDS011;1359;51.798;12.174;2022-12-18T08:49:10;48.60;;;26.53;;
2698;SDS011;1359;51.798;12.174;2022-12-18T08:51:36;48.77;;;28.40;;
2698;SDS011;1359;51.798;12.174;2022-12-18T08:54:01;50.80;;;30.03;;
2698;SDS011;1359;51.798;12.174;2022-12-18T08:56:26;38.13;;;26.20;;
2698;SDS011;1359;51.798;12.174;2022-12-18T08:58:52;40.23;;;23.37;;
2698;SDS011;1359;51.798;12.174;2022-12-18T09:01:18;47.97;;;26.17;;
2698;SDS011;1359;51.798;12.174;2022-12-18T09:03:43;41.87;;;22.80;;
2698;SDS011;1359;51.798;12.174;2022-12-18T09:06:13;42.70;;;22.70;;
2698;SDS011;1359;51.798;12.174;2022-12-18T09:08:38;39.70;;;21.57;;
2698;SDS011;1359;51.798;12.174;2022-12-18T09:11:03;38.87;;;23.23;;
2698;SDS011;1359;51.798;12.174;2022-12-18T09:13:29;40.37;;;27.73;;
2698;SDS011;1359;51.798;12.174;2022-12-18T09:15:54;44.73;;;30.73;;
2698;SDS011;1359;51.798;12.174;2022-12-18T09:18:20;50.53;;;31.57;;
2698;SDS011;1359;51.798;12.174;2022-12-18T09:20:46;49.77;;;31.77;;
2698;SDS011;1359;51.798;12.174;2022-12-18T09:23:12;43.53;;;26.90;;
2698;SDS011;1359;51.798;12.174;2022-12-18T09:25:37;36.37;;;22.90;;
2698;SDS011;1359;51.798;12.174;2022-12-18T09:28:03;47.00;;;28.47;;
2698;SDS011;1359;51.798;12.174;2022-12-18T09:30:29;50.67;;;27.37;;
2698;SDS011;1359;51.798;12.174;2022-12-18T09:32:55;42.97;;;23.13;;
2698;SDS011;1359;51.798;12.174;2022-12-18T09:35:20;40.77;;;24.50;;
2698;SDS011;1359;51.798;12.174;2022-12-18T09:37:45;43.67;;;24.03;;
2698;SDS011;1359;51.798;12.174;2022-12-18T09:40:18;51.30;;;24.40;;
2698;SDS011;1359;51.798;12.174;2022-12-18T09:42:57;43.63;;;24.33;;
2698;SDS011;1359;51.798;12.174;2022-12-18T09:45:24;48.33;;;28.83;;
2698;SDS011;1359;51.798;12.174;2022-12-18T09:47:49;44.87;;;28.03;;
2698;SDS011;1359;51.798;12.174;2022-12-18T09:50:32;35.50;;;21.67;;
2698;SDS011;1359;51.798;12.174;2022-12-18T09:52:59;41.37;;;23.67;;
2698;SDS011;1359;51.798;12.174;2022-12-18T09:57:55;37.43;;;23.17;;
2698;SDS011;1359;51.798;12.174;2022-12-18T10:00:22;37.50;;;22.50;;
2698;SDS011;1359;51.798;12.174;2022-12-18T10:02:48;31.30;;;19.90;;
2698;SDS011;1359;51.798;12.174;2022-12-18T10:05:17;45.03;;;24.50;;
2698;SDS011;1359;51.798;12.174;2022-12-18T10:07:47;37.50;;;24.03;;
2698;SDS011;1359;51.798;12.174;2022-12-18T10:15:26;36.77;;;22.23;;
2698;SDS011;1359;51.798;12.174;2022-12-18T10:18:04;44.10;;;24.10;;
2698;SDS011;1359;51.798;12.174;2022-12-18T10:20:45;39.37;;;22.10;;
2698;SDS011;1359;51.798;12.174;2022-12-18T10:23:18;39.80;;;23.97;;
2698;SDS011;1359;51.798;12.174;2022-12-18T10:26:00;36.40;;;22.47;;
2698;SDS011;1359;51.798;12.174;2022-12-18T10:28:29;33.50;;;20.70;;
2698;SDS011;1359;51.798;12.174;2022-12-18T10:30:54;37.13;;;21.10;;
2698;SDS011;1359;51.798;12.174;2022-12-18T10:33:21;31.60;;;19.17;;
2698;SDS011;1359;51.798;12.174;2022-12-18T10:35:47;39.10;;;23.07;;
2698;SDS011;1359;51.798;12.174;2022-12-18T10:43:13;35.13;;;19.63;;
2698;SDS011;1359;51.798;12.174;2022-12-18T10:45:39;39.87;;;23.67;;
2698;SDS011;1359;51.798;12.174;2022-12-18T10:48:05;44.67;;;22.33;;
2698;SDS011;1359;51.798;12.174;2022-12-18T10:50:42;30.60;;;18.23;;
2698;SDS011;1359;51.798;12.174;2022-12-18T10:53:13;42.03;;;22.73;;
2698;SDS011;1359;51.798;12.174;2022-12-18T10:55:39;39.03;;;22.70;;
2698;SDS011;1359;51.798;12.174;2022-12-18T10:58:28;39.47;;;23.63;;
2698;SDS011;1359;51.798;12.174;2022-12-18T11:03:32;39.30;;;21.80;;
2698;SDS011;1359;51.798;12.174;2022-12-18T11:06:04;39.00;;;23.63;;
2698;SDS011;1359;51.798;12.174;2022-12-18T11:08:30;31.00;;;18.90;;
2698;SDS011;1359;51.798;12.174;2022-12-18T11:10:55;41.20;;;24.70;;
2698;SDS011;1359;51.798;12.174;2022-12-18T11:13:22;43.17;;;22.40;;
2698;SDS011;1359;51.798;12.174;2022-12-18T11:15:48;37.40;;;22.00;;
2698;SDS011;1359;51.798;12.174;2022-12-18T11:18:33;27.00;;;17.50;;
2698;SDS011;1359;51.798;12.174;2022-12-18T11:21:06;28.13;;;17.60;;
2698;SDS011;1359;51.798;12.174;2022-12-18T11:23:32;38.00;;;22.20;;
2698;SDS011;1359;51.798;12.174;2022-12-18T11:26:02;34.53;;;22.13;;
2698;SDS011;1359;51.798;12.174;2022-12-18T11:28:29;27.57;;;19.10;;
2698;SDS011;1359;51.798;12.174;2022-12-18T11:33:40;33.87;;;19.37;;
2698;SDS011;1359;51.798;12.174;2022-12-18T11:36:08;25.93;;;16.13;;
2698;SDS011;1359;51.798;12.174;2022-12-18T11:38:37;26.83;;;17.33;;
2698;SDS011;1359;51.798;12.174;2022-12-18T11:43:47;27.57;;;15.60;;
2698;SDS011;1359;51.798;12.174;2022-12-18T11:46:15;25.80;;;15.60;;
2698;SDS011;1359;51.798;12.174;2022-12-18T11:48:47;27.53;;;16.30;;
2698;SDS011;1359;51.798;12.174;2022-12-18T11:51:15;27.43;;;15.90;;
2698;SDS011;1359;51.798;12.174;2022-12-18T11:53:43;30.40;;;18.17;;
2698;SDS011;1359;51.798;12.174;2022-12-18T11:58:45;27.23;;;16.37;;
2698;SDS011;1359;51.798;12.174;2022-12-18T12:09:10;32.00;;;18.20;;
2698;SDS011;1359;51.798;12.174;2022-12-18T12:14:23;60.47;;;38.33;;
2698;SDS011;1359;51.798;12.174;2022-12-18T12:16:58;24.57;;;17.13;;
2698;SDS011;1359;51.798;12.174;2022-12-18T12:19:42;29.53;;;17.80;;
2698;SDS011;1359;51.798;12.174;2022-12-18T12:22:13;28.77;;;15.80;;
2698;SDS011;1359;51.798;12.174;2022-12-18T12:24:49;36.93;;;22.50;;
2698;SDS011;1359;51.798;12.174;2022-12-18T12:29:50;25.23;;;17.87;;
2698;SDS011;1359;51.798;12.174;2022-12-18T12:32:25;26.10;;;17.73;;
2698;SDS011;1359;51.798;12.174;2022-12-18T12:37:24;28.33;;;19.00;;
2698;SDS011;1359;51.798;12.174;2022-12-18T12:39:54;32.90;;;22.30;;
2698;SDS011;1359;51.798;12.174;2022-12-18T12:42:42;28.70;;;19.97;;
2698;SDS011;1359;51.798;12.174;2022-12-18T12:45:28;26.07;;;17.07;;
2698;SDS011;1359;51.798;12.174;2022-12-18T12:47:55;31.30;;;17.40;;
2698;SDS011;1359;51.798;12.174;2022-12-18T12:50:22;25.83;;;17.07;;
2698;SDS011;1359;51.798;12.174;2022-12-18T12:52:52;30.63;;;17.60;;
2698;SDS011;1359;51.798;12.174;2022-12-18T12:55:22;26.90;;;21.00;;
2698;SDS011;1359;51.798;12.174;2022-12-18T12:57:57;35.20;;;22.60;;
2698;SDS011;1359;51.798;12.174;2022-12-18T13:00:25;38.70;;;22.53;;
2698;SDS011;1359;51.798;12.174;2022-12-18T13:02:58;40.37;;;23.60;;
2698;SDS011;1359;51.798;12.174;2022-12-18T13:05:28;36.13;;;23.70;;
2698;SDS011;1359;51.798;12.174;2022-12-18T13:08:11;55.23;;;33.20;;
2698;SDS011;1359;51.798;12.174;2022-12-18T13:10:39;47.60;;;24.50;;
2698;SDS011;1359;51.798;12.174;2022-12-18T13:15:33;39.70;;;24.83;;
2698;SDS011;1359;51.798;12.174;2022-12-18T13:20:37;37.13;;;21.63;;
2698;SDS011;1359;51.798;12.174;2022-12-18T13:25:47;41.03;;;23.03;;
2698;SDS011;1359;51.798;12.174;2022-12-18T13:28:13;54.90;;;29.43;;
2698;SDS011;1359;51.798;12.174;2022-12-18T13:35:38;35.90;;;19.23;;
2698;SDS011;1359;51.798;12.174;2022-12-18T13:38:18;35.80;;;21.93;;
2698;SDS011;1359;51.798;12.174;2022-12-18T13:45:45;46.20;;;24.60;;
2698;SDS011;1359;51.798;12.174;2022-12-18T13:48:23;45.67;;;22.87;;
2698;SDS011;1359;51.798;12.174;2022-12-18T13:50:55;45.60;;;21.50;;
2698;SDS011;1359;51.798;12.174;2022-12-18T13:53:23;41.00;;;23.13;;
2698;SDS011;1359;51.798;12.174;2022-12-18T13:55:49;40.93;;;23.47;;
2698;SDS011;1359;51.798;12.174;2022-12-18T13:58:14;37.27;;;21.67;;
2698;SDS011;1359;51.798;12.174;2022-12-18T14:00:43;45.93;;;22.43;;
2698;SDS011;1359;51.798;12.174;2022-12-18T14:03:42;48.13;;;22.50;;
2698;SDS011;1359;51.798;12.174;2022-12-18T14:06:05;36.83;;;22.13;;
2698;SDS011;1359;51.798;12.174;2022-12-18T14:08:38;43.07;;;25.20;;
2698;SDS011;1359;51.798;12.174;2022-12-18T14:11:04;38.90;;;23.30;;
2698;SDS011;1359;51.798;12.174;2022-12-18T14:13:31;46.80;;;23.97;;
2698;SDS011;1359;51.798;12.174;2022-12-18T14:16:00;41.77;;;21.60;;
2698;SDS011;1359;51.798;12.174;2022-12-18T14:18:29;41.27;;;23.20;;
2698;SDS011;1359;51.798;12.174;2022-12-18T14:20:57;42.93;;;23.17;;
2698;SDS011;1359;51.798;12.174;2022-12-18T14:25:51;36.10;;;21.97;;
2698;SDS011;1359;51.798;12.174;2022-12-18T14:28:16;38.37;;;23.50;;
2698;SDS011;1359;51.798;12.174;2022-12-18T14:30:42;50.70;;;26.20;;
2698;SDS011;1359;51.798;12.174;2022-12-18T14:35:34;45.00;;;23.43;;
2698;SDS011;1359;51.798;12.174;2022-12-18T14:40:44;41.90;;;22.73;;
2698;SDS011;1359;51.798;12.174;2022-12-18T14:43:12;53.20;;;23.93;;
2698;SDS011;1359;51.798;12.174;2022-12-18T14:45:38;43.40;;;24.80;;
2698;SDS011;1359;51.798;12.174;2022-12-18T14:48:06;42.23;;;23.47;;
2698;SDS011;1359;51.798;12.174;2022-12-18T14:50:32;50.77;;;26.50;;
2698;SDS011;1359;51.798;12.174;2022-12-18T14:52:57;50.13;;;25.67;;
2698;SDS011;1359;51.798;12.174;2022-12-18T14:55:22;55.70;;;27.20;;
2698;SDS011;1359;51.798;12.174;2022-12-18T14:57:54;41.50;;;23.40;;
2698;SDS011;1359;51.798;12.174;2022-12-18T15:00:21;49.17;;;26.20;;
2698;SDS011;1359;51.798;12.174;2022-12-18T15:02:51;64.57;;;29.50;;
2698;SDS011;1359;51.798;12.174;2022-12-18T15:05:19;40.10;;;22.10;;
2698;SDS011;1359;51.798;12.174;2022-12-18T15:07:45;41.03;;;21.10;;
2698;SDS011;1359;51.798;12.174;2022-12-18T15:10:12;47.43;;;23.80;;
2698;SDS011;1359;51.798;12.174;2022-12-18T15:12:42;35.90;;;21.90;;
2698;SDS011;1359;51.798;12.174;2022-12-18T15:18:01;42.60;;;25.40;;
2698;SDS011;1359;51.798;12.174;2022-12-18T15:20:26;43.10;;;21.40;;
2698;SDS011;1359;51.798;12.174;2022-12-18T15:22:52;37.37;;;22.80;;
2698;SDS011;1359;51.798;12.174;2022-12-18T15:25:22;42.90;;;24.33;;
2698;SDS011;1359;51.798;12.174;2022-12-18T15:27:49;40.43;;;22.40;;
2698;SDS011;1359;51.798;12.174;2022-12-18T15:32:39;45.92;;;23.60;;
2698;SDS011;1359;51.798;12.174;2022-12-18T15:37:36;53.73;;;30.90;;
2698;SDS011;1359;51.798;12.174;2022-12-18T15:40:01;47.07;;;26.53;;
2698;SDS011;1359;51.798;12.174;2022-12-18T15:42:27;51.17;;;29.13;;
2698;SDS011;1359;51.798;12.174;2022-12-18T15:45:11;49.37;;;27.53;;
2698;SDS011;1359;51.798;12.174;2022-12-18T15:47:37;41.80;;;26.90;;
2698;SDS011;1359;51.798;12.174;2022-12-18T15:50:02;41.90;;;25.20;;
2698;SDS011;1359;51.798;12.174;2022-12-18T15:52:27;42.67;;;24.90;;
2698;SDS011;1359;51.798;12.174;2022-12-18T15:54:53;44.53;;;24.30;;
2698;SDS011;1359;51.798;12.174;2022-12-18T15:57:37;48.00;;;25.60;;
2698;SDS011;1359;51.798;12.174;2022-12-18T16:00:02;70.38;;;35.67;;
2698;SDS011;1359;51.798;12.174;2022-12-18T16:02:27;43.13;;;27.33;;
2698;SDS011;1359;51.798;12.174;2022-12-18T16:04:53;43.00;;;24.20;;
2698;SDS011;1359;51.798;12.174;2022-12-18T16:07:19;46.93;;;32.17;;
2698;SDS011;1359;51.798;12.174;2022-12-18T16:09:44;53.70;;;32.40;;